Weather reports worldwide

Advertisment
Levens Hall, United Kingdom (99172): temperature & dewpoint: 12.08.2017 00:00:00 - 18.08.2017 00:00:00 (BST)Levens Hall, United Kingdom (99172): visibility: 12.08.2017 00:00:00 - 18.08.2017 00:00:00 (BST)Levens Hall, United Kingdom (99172): precipitation: 12.08.2017 00:00:00 - 18.08.2017 00:00:00 (BST)
Date & Time tt [°C] td [°C] vv [km] rr [mm]
18.08.2017 00:00:00 - - - 0,0
17.08.2017 23:00:00 16,5 13,1 - 0,0
17.08.2017 22:00:00 16,5 13,3 - 0,0
17.08.2017 21:00:00 16,8 13,3 - 0,0
17.08.2017 20:00:00 16,7 14,0 - 0,0
17.08.2017 19:00:00 17,9 14,2 - 0,0
17.08.2017 18:00:00 17,6 14,5 - 0,0
17.08.2017 17:00:00 18,4 14,4 - 0,0
17.08.2017 16:00:00 18,5 13,2 - 0,0
17.08.2017 15:00:00 18,2 13,9 - 0,0
17.08.2017 14:00:00 19,3 13,1 - 0,0
17.08.2017 13:00:00 19,2 13,5 - 0,0
17.08.2017 12:00:00 18,3 14,3 - 0,0
17.08.2017 11:00:00 17,9 12,8 - 0,0
17.08.2017 10:00:00 18,2 14,7 10 0,0
17.08.2017 09:00:00 16,7 15,0 - 0,0
17.08.2017 08:00:00 15,4 14,7 - 0,0
17.08.2017 07:00:00 14,9 14,3 - 0,0
17.08.2017 06:00:00 14,9 14,3 - 0,0
17.08.2017 05:00:00 14,8 14,0 - 0,0
17.08.2017 04:00:00 14,7 14,0 - 0,6
17.08.2017 03:00:00 14,9 13,9 - 3,0
17.08.2017 02:00:00 15,0 13,8 - 3,8
17.08.2017 01:00:00 16,6 13,4 - 0,0
17.08.2017 00:00:00 17,2 13,4 - 0,0
16.08.2017 23:00:00 17,8 13,5 - 0,0
16.08.2017 22:00:00 17,9 13,3 - 0,0
16.08.2017 21:00:00 17,5 13,4 - 0,0
16.08.2017 20:00:00 17,3 13,4 - 0,0
16.08.2017 19:00:00 17,0 13,5 - 0,2
16.08.2017 18:00:00 18,1 12,7 - 0,0
16.08.2017 17:00:00 18,4 13,5 - 0,0
16.08.2017 16:00:00 17,8 12,6 - 0,0
16.08.2017 15:00:00 18,5 12,3 - 0,0
16.08.2017 14:00:00 19,2 13,0 - 0,0
16.08.2017 13:00:00 17,8 12,5 - 0,0
16.08.2017 12:00:00 17,7 11,5 - 0,0
16.08.2017 11:00:00 17,0 11,2 - 0,0
16.08.2017 10:00:00 15,8 11,9 - 0,0
16.08.2017 09:00:00 14,4 11,0 - 0,0
16.08.2017 08:00:00 13,0 11,2 - 0,0
16.08.2017 07:00:00 12,0 11,0 - 0,0
16.08.2017 06:00:00 11,8 11,1 - 0,0
16.08.2017 05:00:00 11,8 11,1 - 0,0
16.08.2017 04:00:00 12,1 11,3 - 0,0
16.08.2017 03:00:00 12,3 11,2 - 0,0
16.08.2017 02:00:00 14,0 12,6 - 0,0
16.08.2017 01:00:00 12,6 11,6 - 0,0
16.08.2017 00:00:00 13,9 12,5 - 0,0
15.08.2017 23:00:00 13,9 12,4 - 0,0
15.08.2017 22:00:00 14,7 12,4 - 0,0
15.08.2017 21:00:00 15,1 12,5 - 0,0
15.08.2017 20:00:00 15,6 12,0 - 0,0
15.08.2017 19:00:00 16,2 11,4 - 0,0
15.08.2017 18:00:00 16,8 11,8 - 0,0
15.08.2017 17:00:00 17,2 12,0 - 0,0
15.08.2017 16:00:00 16,9 12,1 - 0,0
15.08.2017 15:00:00 16,7 11,7 - 0,0
15.08.2017 14:00:00 16,8 12,2 - 0,0
15.08.2017 13:00:00 17,3 13,5 - 0,0
15.08.2017 12:00:00 16,9 13,2 - 0,0
15.08.2017 11:00:00 16,2 12,8 - 0,0
15.08.2017 10:00:00 16,7 13,3 10 0,0
15.08.2017 09:00:00 15,6 14,1 - 0,0
15.08.2017 08:00:00 14,3 13,5 - 0,0
15.08.2017 07:00:00 13,7 13,3 - 0,0
15.08.2017 06:00:00 13,4 12,7 - 0,0
15.08.2017 05:00:00 13,7 12,8 - 0,0
15.08.2017 04:00:00 14,9 14,2 - 7,4
15.08.2017 03:00:00 15,2 14,3 - 0,8
15.08.2017 02:00:00 15,1 14,3 - 0,0
15.08.2017 01:00:00 15,6 14,9 - 0,8
15.08.2017 00:00:00 15,7 15,1 - 4,2
14.08.2017 23:00:00 15,5 14,9 - 3,0
14.08.2017 22:00:00 15,6 14,7 10 2,2
14.08.2017 21:00:00 15,8 14,9 - 2,8
14.08.2017 20:00:00 16,3 14,6 - 0,6
14.08.2017 19:00:00 17,6 14,0 - 0,0
14.08.2017 18:00:00 18,5 14,5 - 0,0
14.08.2017 17:00:00 18,0 14,6 - 0,0
14.08.2017 16:00:00 16,7 14,7 - 0,0
14.08.2017 15:00:00 18,2 13,9 - 0,0
14.08.2017 14:00:00 17,6 13,6 - 0,0
14.08.2017 13:00:00 16,4 14,6 - 0,0
14.08.2017 12:00:00 14,8 13,7 - 0,0
14.08.2017 11:00:00 14,3 13,2 - 0,6
14.08.2017 10:00:00 14,1 13,4 - 0,2
14.08.2017 09:00:00 13,6 12,8 - 0,4
14.08.2017 08:00:00 13,1 12,3 - 0,8
14.08.2017 07:00:00 12,6 11,7 - 1,4
14.08.2017 06:00:00 12,5 11,4 - 0,0
14.08.2017 05:00:00 12,5 11,2 - 0,2
14.08.2017 04:00:00 12,9 10,9 - 0,0
14.08.2017 03:00:00 12,3 10,7 - 0,0
14.08.2017 02:00:00 11,8 10,3 - 0,0
14.08.2017 01:00:00 12,5 9,4 - 0,0
14.08.2017 00:00:00 12,9 9,6 - 0,0
13.08.2017 23:00:00 13,0 9,7 - 0,0
13.08.2017 22:00:00 13,2 10,6 - 0,0
13.08.2017 21:00:00 13,9 10,1 - 0,0
13.08.2017 20:00:00 15,3 10,3 - 0,0
13.08.2017 19:00:00 16,8 7,6 - 0,0
13.08.2017 18:00:00 17,1 5,9 - 0,0
13.08.2017 17:00:00 18,0 6,2 - -
13.08.2017 16:00:00 18,2 8,1 - 0,0
13.08.2017 15:00:00 17,2 8,4 - 0,0
13.08.2017 14:00:00 15,8 10,0 - 0,0
13.08.2017 13:00:00 15,4 10,3 - 0,0
13.08.2017 12:00:00 16,4 10,0 - 0,0
13.08.2017 11:00:00 15,6 9,6 - 0,0
13.08.2017 10:00:00 14,1 10,1 - 0,0
13.08.2017 09:00:00 11,4 10,4 - 0,0
13.08.2017 08:00:00 8,7 8,2 - 0,0
13.08.2017 07:00:00 6,8 6,3 - 0,0
13.08.2017 06:00:00 6,4 5,8 - 0,2
13.08.2017 05:00:00 6,8 6,2 - 0,0
13.08.2017 04:00:00 7,7 7,0 - 0,0
13.08.2017 03:00:00 8,5 7,7 - 0,0
13.08.2017 02:00:00 9,0 8,1 - 0,0
13.08.2017 01:00:00 9,6 8,4 - 0,0
13.08.2017 00:00:00 11,1 9,3 - 0,0
12.08.2017 23:00:00 12,6 9,7 - 0,0
12.08.2017 22:00:00 13,5 9,9 - 0,0
12.08.2017 21:00:00 14,6 9,9 - 0,0
12.08.2017 20:00:00 15,8 10,2 - 0,0
12.08.2017 19:00:00 17,0 8,4 - 0,0
12.08.2017 18:00:00 17,0 9,5 - 0,0
12.08.2017 17:00:00 18,3 9,4 - 0,0
12.08.2017 16:00:00 19,5 9,9 - 0,0
12.08.2017 15:00:00 18,2 11,0 - 0,0
12.08.2017 14:00:00 19,4 14,1 - 0,0
12.08.2017 13:00:00 17,2 14,0 - 0,0
12.08.2017 12:00:00 15,9 13,3 - 0,0
12.08.2017 11:00:00 16,2 13,3 - 0,0
12.08.2017 10:00:00 15,1 14,1 - 0,0
12.08.2017 09:00:00 14,4 13,4 - 0,2
12.08.2017 08:00:00 14,5 12,7 - 0,0
12.08.2017 07:00:00 13,3 12,3 - 0,0
12.08.2017 06:00:00 12,4 11,6 - 0,0
12.08.2017 05:00:00 12,7 11,5 - 0,0
12.08.2017 04:00:00 13,3 12,3 - 0,0
12.08.2017 03:00:00 14,1 12,8 - 0,0
12.08.2017 02:00:00 14,9 12,7 - 0,0
12.08.2017 01:00:00 15,2 13,5 - 0,0
12.08.2017 00:00:00 15,8 15,1 - 0,0

tt = temperature
td = dewpoint
vv = visibility
rr = precipitation

Next stations